createdAt,value
2018-03-22T00:01:18.546Z,-1.90
2018-03-22T00:03:46.949Z,-1.80
2018-03-22T00:06:14.433Z,-1.90
2018-03-22T00:08:42.256Z,-2.00
2018-03-22T00:11:09.705Z,-2.10
2018-03-22T00:13:37.158Z,-2.20
2018-03-22T00:16:04.817Z,-2.20
2018-03-22T00:18:32.286Z,-2.10
2018-03-22T00:21:01.434Z,-2.10
2018-03-22T00:23:28.922Z,-2.10
2018-03-22T00:25:56.389Z,-2.10
2018-03-22T00:28:23.855Z,-2.20
2018-03-22T00:30:55.808Z,-2.30
2018-03-22T00:33:23.268Z,-2.30
2018-03-22T00:35:50.893Z,-2.50
2018-03-22T00:38:18.364Z,-2.60
2018-03-22T00:40:45.815Z,-2.60
2018-03-22T00:43:13.261Z,-2.90
2018-03-22T00:45:44.541Z,-2.90
2018-03-22T00:48:12.021Z,-2.90
2018-03-22T00:50:39.989Z,-3.00
2018-03-22T00:53:07.469Z,-3.10
2018-03-22T00:55:34.942Z,-3.10
2018-03-22T00:58:02.376Z,-3.20
2018-03-22T01:00:33.277Z,-3.30
2018-03-22T01:03:00.724Z,-3.30
2018-03-22T01:05:28.193Z,-3.30
2018-03-22T01:07:55.661Z,-3.40
2018-03-22T01:10:24.213Z,-3.40
2018-03-22T01:12:51.789Z,-3.40
2018-03-22T01:15:19.369Z,-3.40
2018-03-22T01:17:46.820Z,-3.40
2018-03-22T01:20:14.269Z,-3.30
2018-03-22T01:22:41.769Z,-3.30
2018-03-22T01:25:09.235Z,-3.20
2018-03-22T01:27:37.619Z,-3.00
2018-03-22T01:30:10.967Z,-2.80
2018-03-22T01:32:38.405Z,-2.70
2018-03-22T01:35:05.845Z,-2.70
2018-03-22T01:37:33.317Z,-2.80
2018-03-22T01:40:00.760Z,-2.80
2018-03-22T01:42:28.236Z,-2.80
2018-03-22T01:44:55.706Z,-2.90
2018-03-22T01:47:23.153Z,-2.90
2018-03-22T01:49:50.621Z,-2.90
2018-03-22T01:52:18.837Z,-3.00
2018-03-22T01:54:46.330Z,-3.00
2018-03-22T01:57:13.782Z,-2.90
2018-03-22T01:59:41.258Z,-3.00
2018-03-22T02:02:08.709Z,-3.00
2018-03-22T02:04:36.369Z,-3.10
2018-03-22T02:07:03.818Z,-3.20
2018-03-22T02:09:31.275Z,-3.20
2018-03-22T02:11:58.750Z,-3.20
2018-03-22T02:14:26.189Z,-3.20
2018-03-22T02:16:58.573Z,-3.30
2018-03-22T02:19:26.152Z,-3.40
2018-03-22T02:21:53.617Z,-3.50
2018-03-22T02:24:21.829Z,-3.60
2018-03-22T02:26:49.417Z,-3.60
2018-03-22T02:29:16.889Z,-3.60
2018-03-22T02:31:44.549Z,-3.70
2018-03-22T02:34:12.014Z,-3.70
2018-03-22T02:36:39.458Z,-3.70
2018-03-22T02:39:06.923Z,-3.60
2018-03-22T02:41:34.364Z,-3.60
2018-03-22T02:44:01.827Z,-3.50
2018-03-22T02:46:29.268Z,-3.50
2018-03-22T02:48:56.734Z,-3.60
2018-03-22T02:51:24.710Z,-3.70
2018-03-22T02:53:52.572Z,-3.80
2018-03-22T02:56:20.062Z,-3.80
2018-03-22T02:58:47.553Z,-3.70
2018-03-22T03:01:15.032Z,-3.60
2018-03-22T03:03:46.449Z,-3.70
2018-03-22T03:06:13.891Z,-3.70
2018-03-22T03:08:42.820Z,-3.50
2018-03-22T03:11:10.308Z,-3.50
2018-03-22T03:13:37.758Z,-3.40
2018-03-22T03:16:05.208Z,-3.40
2018-03-22T03:18:36.354Z,-3.30
2018-03-22T03:21:03.833Z,-3.20
2018-03-22T03:23:31.753Z,-3.20
2018-03-22T03:25:59.190Z,-3.20
2018-03-22T03:28:26.789Z,-3.20
2018-03-22T03:30:54.262Z,-3.10
2018-03-22T03:33:24.707Z,-3.00
2018-03-22T03:35:52.141Z,-2.90
2018-03-22T03:38:19.620Z,-2.80
2018-03-22T03:40:47.101Z,-2.80
2018-03-22T03:43:15.460Z,-2.70
2018-03-22T03:45:42.934Z,-2.60
2018-03-22T03:48:14.450Z,-2.60
2018-03-22T03:50:41.950Z,-2.50
2018-03-22T03:53:09.428Z,-2.50
2018-03-22T03:55:36.905Z,-2.50
2018-03-22T03:58:05.284Z,-2.50
2018-03-22T04:00:32.728Z,-2.60
2018-03-22T04:03:00.220Z,-2.60
2018-03-22T04:05:28.040Z,-2.60
2018-03-22T04:07:55.477Z,-2.60
2018-03-22T04:10:22.963Z,-2.50
2018-03-22T04:12:50.429Z,-2.60
2018-03-22T04:15:18.816Z,-2.60
2018-03-22T04:17:46.260Z,-2.60
2018-03-22T04:20:18.148Z,-2.60
2018-03-22T04:22:45.603Z,-2.60
2018-03-22T04:25:13.792Z,-2.60
2018-03-22T04:27:41.228Z,-2.70
2018-03-22T04:30:08.707Z,-2.80
2018-03-22T04:32:36.159Z,-2.80
2018-03-22T04:35:03.669Z,-2.80
2018-03-22T04:37:31.141Z,-2.60
2018-03-22T04:39:58.587Z,-2.60
2018-03-22T04:42:26.066Z,-2.60
2018-03-22T04:44:53.521Z,-2.70
2018-03-22T04:47:20.976Z,-2.70
2018-03-22T04:49:48.450Z,-2.70
2018-03-22T04:52:16.446Z,-2.80
2018-03-22T04:54:44.994Z,-2.70
2018-03-22T04:57:12.455Z,-2.70
2018-03-22T04:59:39.925Z,-2.60
2018-03-22T05:02:07.397Z,-2.60
2018-03-22T05:04:40.377Z,-2.50
2018-03-22T05:07:07.813Z,-2.50
2018-03-22T05:09:35.285Z,-2.50
2018-03-22T05:12:02.729Z,-2.50
2018-03-22T05:14:30.828Z,-2.50
2018-03-22T05:16:58.281Z,-2.60
2018-03-22T05:19:25.753Z,-2.50
2018-03-22T05:21:56.957Z,-2.50
2018-03-22T05:24:24.406Z,-2.40
2018-03-22T05:26:51.885Z,-2.40
2018-03-22T05:29:20.072Z,-2.40
2018-03-22T05:31:48.295Z,-2.30
2018-03-22T05:34:15.781Z,-2.30
2018-03-22T05:36:43.237Z,-2.20
2018-03-22T05:39:10.733Z,-2.20
2018-03-22T05:41:38.184Z,-2.20
2018-03-22T05:44:06.417Z,-2.10
2018-03-22T05:46:33.916Z,-2.10
2018-03-22T05:49:01.412Z,-2.10
2018-03-22T05:51:29.101Z,-2.00
2018-03-22T05:53:56.598Z,-2.10
2018-03-22T05:56:24.060Z,-2.00
2018-03-22T05:58:51.512Z,-1.90
2018-03-22T06:01:19.005Z,-1.80
2018-03-22T06:03:46.697Z,-1.60
2018-03-22T06:06:14.169Z,-1.50
2018-03-22T06:08:42.445Z,-1.40
2018-03-22T06:11:09.981Z,-1.30
2018-03-22T06:13:37.457Z,-1.30
2018-03-22T06:16:04.910Z,-1.30
2018-03-22T06:18:32.373Z,-1.20
2018-03-22T06:20:59.988Z,-1.10
2018-03-22T06:23:27.450Z,-1.10
2018-03-22T06:25:55.853Z,-1.00
2018-03-22T06:28:23.303Z,-0.90
2018-03-22T06:30:50.768Z,-0.90
2018-03-22T06:33:18.229Z,-0.80
2018-03-22T06:35:45.780Z,-0.70
2018-03-22T06:38:13.218Z,-0.60
2018-03-22T06:40:40.657Z,-0.50
2018-03-22T06:43:08.135Z,-0.50
2018-03-22T06:45:35.598Z,-0.40
2018-03-22T06:48:03.084Z,-0.20
2018-03-22T06:50:30.947Z,0.00
2018-03-22T06:52:59.122Z,0.20
2018-03-22T06:55:26.590Z,0.20
2018-03-22T06:57:54.092Z,0.40
2018-03-22T07:00:21.549Z,0.60
2018-03-22T07:02:49.008Z,0.80
2018-03-22T07:05:16.485Z,1.00
2018-03-22T07:07:43.949Z,1.10
2018-03-22T07:10:11.613Z,1.10
2018-03-22T07:12:39.101Z,1.20
2018-03-22T07:15:07.915Z,1.40
2018-03-22T07:17:35.393Z,1.30
2018-03-22T07:20:02.886Z,1.50
2018-03-22T07:22:30.335Z,1.60
2018-03-22T07:24:57.807Z,1.70
2018-03-22T07:27:26.193Z,1.80
2018-03-22T07:29:54.403Z,2.20
2018-03-22T07:32:21.866Z,2.20
2018-03-22T07:34:49.317Z,2.40
2018-03-22T07:37:20.497Z,2.60
2018-03-22T07:39:48.021Z,2.70
2018-03-22T07:42:15.721Z,2.80
2018-03-22T07:44:49.070Z,2.90
2018-03-22T07:47:16.483Z,2.90
2018-03-22T07:49:44.552Z,3.00
2018-03-22T07:52:12.169Z,3.10
2018-03-22T07:54:39.609Z,3.20
2018-03-22T07:57:07.081Z,3.40
2018-03-22T07:59:35.461Z,3.50
2018-03-22T08:02:02.922Z,3.60
2018-03-22T08:04:30.718Z,3.70
2018-03-22T08:06:59.201Z,3.70
2018-03-22T08:09:26.662Z,3.70
2018-03-22T08:11:54.881Z,3.70
2018-03-22T08:14:22.377Z,3.70
2018-03-22T08:16:49.918Z,3.70
2018-03-22T08:19:17.388Z,3.70
2018-03-22T08:21:45.028Z,3.80
2018-03-22T08:24:12.485Z,3.90
2018-03-22T08:26:39.954Z,4.10
2018-03-22T08:29:07.763Z,4.10
2018-03-22T08:31:35.239Z,4.20
2018-03-22T08:34:03.149Z,4.10
2018-03-22T08:36:30.614Z,4.10
2018-03-22T08:38:58.061Z,4.10
2018-03-22T08:41:25.595Z,4.20
2018-03-22T08:43:53.076Z,4.40
2018-03-22T08:46:20.648Z,4.50
2018-03-22T08:48:48.101Z,4.60
2018-03-22T08:51:17.239Z,4.80
2018-03-22T08:53:44.700Z,4.80
2018-03-22T08:56:12.905Z,5.00
2018-03-22T08:58:40.388Z,5.00
2018-03-22T09:01:07.839Z,5.20
2018-03-22T09:03:37.045Z,5.60
2018-03-22T09:06:04.623Z,5.50
2018-03-22T09:08:32.072Z,5.80
2018-03-22T09:10:59.545Z,5.90
2018-03-22T09:13:26.989Z,6.00
2018-03-22T09:15:55.370Z,6.10
2018-03-22T09:18:23.021Z,6.30
2018-03-22T09:20:50.476Z,6.40
2018-03-22T09:23:17.917Z,6.40
2018-03-22T09:25:48.882Z,6.40
2018-03-22T09:28:16.317Z,6.50
2018-03-22T09:30:45.642Z,6.90
2018-03-22T09:33:13.085Z,6.90
2018-03-22T09:35:40.658Z,6.90
2018-03-22T09:38:08.324Z,6.80
2018-03-22T09:40:39.362Z,6.70
2018-03-22T09:43:06.789Z,6.40
2018-03-22T09:45:34.285Z,6.30
2018-03-22T09:48:02.515Z,6.40
2018-03-22T09:50:29.945Z,6.30
2018-03-22T09:52:57.421Z,5.40
2018-03-22T09:55:24.895Z,5.10
2018-03-22T09:57:53.101Z,5.20
2018-03-22T10:00:21.197Z,5.30
2018-03-22T10:02:48.677Z,5.50
2018-03-22T10:05:16.856Z,5.70
2018-03-22T10:07:44.325Z,5.70
2018-03-22T10:10:12.677Z,5.70
2018-03-22T10:12:40.282Z,5.70
2018-03-22T10:15:07.753Z,5.70
2018-03-22T10:17:35.214Z,5.70
2018-03-22T10:20:02.657Z,5.70
2018-03-22T10:22:30.240Z,5.70
2018-03-22T10:24:57.682Z,5.70
2018-03-22T10:27:27.569Z,6.00
2018-03-22T10:29:55.012Z,6.10
2018-03-22T10:32:22.473Z,6.00
2018-03-22T10:34:49.912Z,6.00
2018-03-22T10:37:17.395Z,5.80
2018-03-22T10:39:45.809Z,5.70
2018-03-22T10:42:17.858Z,5.70
2018-03-22T10:44:46.227Z,5.70
2018-03-22T10:47:13.661Z,5.90
2018-03-22T10:49:41.145Z,6.20
2018-03-22T10:52:08.601Z,6.40
2018-03-22T10:54:36.073Z,6.40
2018-03-22T10:57:03.512Z,6.10
2018-03-22T10:59:31.864Z,6.40
2018-03-22T11:02:00.494Z,6.50
2018-03-22T11:04:28.010Z,6.80
2018-03-22T11:06:55.479Z,6.90
2018-03-22T11:09:22.964Z,6.50
2018-03-22T11:11:50.583Z,6.30
2018-03-22T11:14:19.862Z,6.40
2018-03-22T11:16:47.306Z,6.40
2018-03-22T11:19:15.528Z,7.00
2018-03-22T11:21:43.588Z,7.00
2018-03-22T11:24:11.021Z,7.10
2018-03-22T11:26:43.159Z,6.80
2018-03-22T11:29:10.593Z,6.70
2018-03-22T11:31:39.545Z,6.60
2018-03-22T11:34:06.995Z,6.40
2018-03-22T11:36:34.456Z,6.50
2018-03-22T11:39:01.970Z,6.20
2018-03-22T11:41:29.417Z,6.20
2018-03-22T11:43:56.921Z,6.50
2018-03-22T11:46:24.633Z,6.60
2018-03-22T11:48:52.436Z,6.60
2018-03-22T11:51:20.171Z,6.70
2018-03-22T11:53:47.692Z,6.80
2018-03-22T11:56:18.977Z,7.00
2018-03-22T11:58:47.393Z,6.70
2018-03-22T12:01:14.839Z,6.80
2018-03-22T12:03:42.273Z,6.90
2018-03-22T12:06:09.764Z,6.60
2018-03-22T12:08:37.970Z,6.20
2018-03-22T12:11:06.332Z,6.20
2018-03-22T12:13:33.801Z,6.50
2018-03-22T12:16:01.261Z,6.60
2018-03-22T12:18:28.715Z,6.70
2018-03-22T12:20:56.149Z,6.70
2018-03-22T12:23:23.811Z,6.50
2018-03-22T12:25:51.258Z,6.50
2018-03-22T12:28:18.718Z,6.50
2018-03-22T12:30:46.156Z,6.60
2018-03-22T12:33:13.701Z,6.80
2018-03-22T12:35:41.185Z,6.80
2018-03-22T12:38:09.110Z,7.00
2018-03-22T12:40:36.550Z,7.10
2018-03-22T12:43:04.989Z,6.80
2018-03-22T12:45:32.512Z,6.80
2018-03-22T12:47:59.968Z,6.60
2018-03-22T12:50:27.612Z,6.60
2018-03-22T12:52:55.036Z,6.70
2018-03-22T12:55:23.238Z,6.80
2018-03-22T12:57:50.897Z,6.90
2018-03-22T13:00:18.353Z,6.70
2018-03-22T13:02:45.826Z,6.60
2018-03-22T13:05:13.306Z,6.50
2018-03-22T13:07:40.748Z,6.30
2018-03-22T13:10:08.219Z,6.00
2018-03-22T13:12:40.731Z,5.70
2018-03-22T13:15:08.132Z,5.80
2018-03-22T13:17:35.621Z,6.00
2018-03-22T13:20:03.082Z,6.00
2018-03-22T13:22:31.480Z,6.10
2018-03-22T13:24:58.962Z,6.10
2018-03-22T13:27:26.423Z,5.90
2018-03-22T13:29:53.905Z,5.80
2018-03-22T13:32:21.337Z,5.70
2018-03-22T13:34:48.820Z,5.30
2018-03-22T13:37:16.277Z,5.20
2018-03-22T13:39:43.846Z,5.30
2018-03-22T13:42:11.344Z,5.40
2018-03-22T13:44:38.795Z,5.40
2018-03-22T13:47:06.849Z,5.30
2018-03-22T13:49:34.557Z,5.00
2018-03-22T13:52:02.180Z,5.00
2018-03-22T13:54:30.392Z,4.90
2018-03-22T13:56:59.685Z,4.90
2018-03-22T13:59:26.993Z,4.90
2018-03-22T14:01:54.625Z,4.80
2018-03-22T14:04:22.111Z,4.70
2018-03-22T14:06:49.557Z,4.90
2018-03-22T14:09:17.018Z,4.80
2018-03-22T14:11:45.302Z,4.60
2018-03-22T14:14:12.972Z,4.60
2018-03-22T14:16:40.536Z,4.40
2018-03-22T14:19:08.785Z,4.20
2018-03-22T14:21:36.249Z,4.20
2018-03-22T14:24:03.710Z,4.20
2018-03-22T14:26:31.943Z,4.30
2018-03-22T14:29:03.844Z,4.20
2018-03-22T14:31:32.244Z,4.10
2018-03-22T14:33:59.762Z,4.00
2018-03-22T14:36:27.428Z,3.90
2018-03-22T14:38:54.917Z,3.80
2018-03-22T14:41:22.360Z,3.90
2018-03-22T14:43:53.495Z,3.90
2018-03-22T14:46:21.888Z,3.90
2018-03-22T14:48:49.361Z,4.00
2018-03-22T14:51:16.812Z,3.80
2018-03-22T14:53:44.281Z,3.80
2018-03-22T14:56:11.728Z,3.80
2018-03-22T14:58:39.227Z,3.90
2018-03-22T15:01:06.677Z,4.00
2018-03-22T15:03:34.112Z,3.90
2018-03-22T15:06:01.617Z,3.70
2018-03-22T15:08:29.065Z,3.70
2018-03-22T15:10:56.649Z,3.70
2018-03-22T15:13:25.789Z,3.60
2018-03-22T15:15:53.234Z,3.60
2018-03-22T15:18:20.965Z,3.60
2018-03-22T15:20:50.109Z,3.50
2018-03-22T15:23:17.549Z,3.40
2018-03-22T15:25:45.801Z,3.50
2018-03-22T15:28:14.130Z,3.50
2018-03-22T15:30:41.548Z,3.50
2018-03-22T15:33:12.153Z,3.50
2018-03-22T15:35:39.628Z,3.40
2018-03-22T15:38:08.301Z,3.40
2018-03-22T15:40:35.962Z,3.30
2018-03-22T15:43:03.592Z,3.30
2018-03-22T15:45:31.041Z,3.20
2018-03-22T15:47:58.497Z,3.20
2018-03-22T15:50:25.956Z,3.10
2018-03-22T15:52:53.425Z,3.00
2018-03-22T15:55:20.933Z,3.00
2018-03-22T15:57:49.177Z,2.90
2018-03-22T16:00:20.080Z,2.90
2018-03-22T16:02:47.700Z,2.90
2018-03-22T16:05:15.202Z,3.00
2018-03-22T16:07:42.695Z,3.00
2018-03-22T16:10:10.149Z,3.00
2018-03-22T16:12:37.639Z,2.90
2018-03-22T16:15:05.848Z,2.80
2018-03-22T16:17:37.064Z,2.80
2018-03-22T16:20:05.368Z,2.70
2018-03-22T16:22:32.810Z,2.70
2018-03-22T16:25:01.080Z,2.70
2018-03-22T16:27:30.011Z,2.60
2018-03-22T16:29:57.460Z,2.60
2018-03-22T16:32:28.324Z,2.60
2018-03-22T16:34:55.793Z,2.70
2018-03-22T16:37:24.993Z,2.60
2018-03-22T16:39:52.438Z,2.60
2018-03-22T16:42:19.962Z,2.60
2018-03-22T16:44:47.441Z,2.60
2018-03-22T16:47:14.884Z,2.60
2018-03-22T16:49:42.357Z,2.60
2018-03-22T16:52:10.811Z,2.60
2018-03-22T16:54:38.245Z,2.60
2018-03-22T16:57:05.868Z,2.60
2018-03-22T16:59:33.350Z,2.70
2018-03-22T17:02:01.836Z,2.60
2018-03-22T17:04:30.163Z,2.60
2018-03-22T17:06:57.605Z,2.60
2018-03-22T17:09:25.117Z,2.50
2018-03-22T17:11:52.577Z,2.50
2018-03-22T17:14:20.818Z,2.50
2018-03-22T17:16:49.187Z,2.50
2018-03-22T17:19:16.687Z,2.50
2018-03-22T17:21:44.156Z,2.50
2018-03-22T17:24:11.612Z,2.40
2018-03-22T17:26:39.086Z,2.40
2018-03-22T17:29:06.537Z,2.30
2018-03-22T17:31:34.061Z,2.30
2018-03-22T17:34:03.924Z,2.30
2018-03-22T17:36:31.381Z,2.30
2018-03-22T17:38:58.877Z,2.30
2018-03-22T17:41:26.349Z,2.30
2018-03-22T17:43:54.964Z,2.30
2018-03-22T17:46:22.791Z,2.30
2018-03-22T17:48:50.413Z,2.30
2018-03-22T17:51:17.882Z,2.40
2018-03-22T17:53:45.363Z,2.40
2018-03-22T17:56:13.578Z,2.30
2018-03-22T17:58:41.021Z,2.30
2018-03-22T18:01:08.508Z,2.30
2018-03-22T18:03:36.212Z,2.40
2018-03-22T18:06:06.129Z,2.40
2018-03-22T18:08:33.596Z,2.40
2018-03-22T18:11:01.029Z,2.30
2018-03-22T18:13:28.515Z,2.30
2018-03-22T18:15:56.074Z,2.20
2018-03-22T18:18:23.524Z,2.20
2018-03-22T18:20:50.965Z,2.30
2018-03-22T18:23:18.450Z,2.40
2018-03-22T18:25:46.687Z,2.50
2018-03-22T18:28:14.146Z,2.50
2018-03-22T18:30:41.596Z,2.50
2018-03-22T18:33:09.055Z,2.50
2018-03-22T18:35:37.145Z,2.50
2018-03-22T18:38:05.141Z,2.50
2018-03-22T18:40:34.289Z,2.50
2018-03-22T18:43:01.989Z,2.50
2018-03-22T18:45:29.452Z,2.50
2018-03-22T18:48:00.175Z,2.40
2018-03-22T18:50:29.337Z,2.40
2018-03-22T18:52:56.829Z,2.40
2018-03-22T18:55:24.290Z,2.40
2018-03-22T18:57:51.745Z,2.50
2018-03-22T19:00:19.217Z,2.50
2018-03-22T19:02:47.481Z,2.40
2018-03-22T19:05:14.965Z,2.50
2018-03-22T19:07:42.466Z,2.40
2018-03-22T19:10:09.961Z,2.40
2018-03-22T19:12:38.521Z,2.30
2018-03-22T19:15:05.998Z,2.30
2018-03-22T19:17:33.516Z,2.30
2018-03-22T19:20:02.429Z,2.40
2018-03-22T19:22:30.816Z,2.40
2018-03-22T19:24:59.826Z,2.30
2018-03-22T19:27:27.444Z,2.30
2018-03-22T19:29:54.890Z,2.30
2018-03-22T19:32:22.361Z,2.30
2018-03-22T19:34:53.116Z,2.30
2018-03-22T19:37:21.060Z,2.40
2018-03-22T19:39:48.534Z,2.40
2018-03-22T19:42:15.977Z,2.30
2018-03-22T19:44:43.453Z,2.30
2018-03-22T19:47:10.916Z,2.40
2018-03-22T19:49:45.421Z,2.40
2018-03-22T19:52:13.017Z,2.40
2018-03-22T19:54:41.883Z,2.30
2018-03-22T19:57:09.520Z,2.30
2018-03-22T19:59:36.965Z,2.30
2018-03-22T20:02:06.189Z,2.30
2018-03-22T20:04:37.504Z,2.30
2018-03-22T20:07:05.805Z,2.30
2018-03-22T20:09:33.406Z,2.30
2018-03-22T20:12:00.873Z,2.30
2018-03-22T20:14:28.332Z,2.30
2018-03-22T20:16:55.788Z,2.30
2018-03-22T20:19:26.900Z,2.30
2018-03-22T20:21:55.491Z,2.30
2018-03-22T20:24:23.045Z,2.30
2018-03-22T20:26:50.514Z,2.30
2018-03-22T20:29:17.985Z,2.30
2018-03-22T20:31:45.437Z,2.30
2018-03-22T20:34:12.936Z,2.20
2018-03-22T20:36:40.385Z,2.30
2018-03-22T20:39:08.120Z,2.30
2018-03-22T20:41:36.346Z,2.30
2018-03-22T20:44:04.741Z,2.30
2018-03-22T20:46:32.197Z,2.30
2018-03-22T20:48:59.703Z,2.30
2018-03-22T20:51:28.101Z,2.40
2018-03-22T20:53:55.582Z,2.40
2018-03-22T20:56:23.061Z,2.40
2018-03-22T20:58:50.567Z,2.30
2018-03-22T21:01:17.973Z,2.30
2018-03-22T21:03:45.729Z,2.40
2018-03-22T21:06:13.205Z,2.40
2018-03-22T21:08:40.943Z,2.40
2018-03-22T21:11:08.405Z,2.50
2018-03-22T21:13:36.484Z,2.50
2018-03-22T21:16:03.953Z,2.50
2018-03-22T21:18:31.601Z,2.50
2018-03-22T21:21:06.126Z,2.50
2018-03-22T21:23:33.571Z,2.50
2018-03-22T21:26:02.030Z,2.40
2018-03-22T21:28:29.510Z,2.40
2018-03-22T21:30:57.290Z,2.30
2018-03-22T21:33:24.753Z,2.30
2018-03-22T21:35:52.193Z,2.30
2018-03-22T21:38:19.662Z,2.30
2018-03-22T21:40:47.148Z,2.40
2018-03-22T21:43:15.397Z,2.40
2018-03-22T21:45:42.846Z,2.20
2018-03-22T21:48:10.319Z,2.10
2018-03-22T21:50:49.648Z,2.10
2018-03-22T21:53:17.107Z,2.10
2018-03-22T21:55:45.336Z,2.10
2018-03-22T21:58:12.830Z,2.10
2018-03-22T22:00:40.304Z,2.00
2018-03-22T22:03:07.744Z,2.10
2018-03-22T22:05:35.866Z,2.10
2018-03-22T22:08:03.306Z,2.10
2018-03-22T22:10:30.773Z,2.20
2018-03-22T22:12:58.251Z,2.20
2018-03-22T22:15:25.695Z,2.20
2018-03-22T22:17:53.664Z,2.30
2018-03-22T22:20:21.884Z,2.30
2018-03-22T22:22:52.609Z,2.30
2018-03-22T22:25:20.069Z,2.20
2018-03-22T22:27:47.645Z,2.20
2018-03-22T22:30:16.155Z,2.20
2018-03-22T22:32:45.533Z,2.10
2018-03-22T22:35:12.965Z,2.10
2018-03-22T22:37:43.506Z,2.10
2018-03-22T22:40:10.964Z,2.10
2018-03-22T22:42:39.390Z,2.20
2018-03-22T22:45:06.849Z,2.30
2018-03-22T22:47:34.441Z,2.30
2018-03-22T22:50:01.885Z,2.30
2018-03-22T22:52:29.381Z,2.20
2018-03-22T22:54:56.821Z,2.30
2018-03-22T22:57:25.342Z,2.40
2018-03-22T22:59:54.489Z,2.40
2018-03-22T23:02:21.937Z,2.40
2018-03-22T23:04:49.420Z,2.40
2018-03-22T23:07:21.577Z,2.50
2018-03-22T23:09:55.154Z,2.50
2018-03-22T23:12:22.663Z,2.50
2018-03-22T23:14:50.135Z,2.50
2018-03-22T23:17:17.585Z,2.50
2018-03-22T23:19:45.026Z,2.50
2018-03-22T23:22:13.422Z,2.60
2018-03-22T23:24:41.114Z,2.60
2018-03-22T23:27:08.553Z,2.60
2018-03-22T23:29:36.005Z,2.70
2018-03-22T23:32:03.477Z,2.60
2018-03-22T23:34:30.937Z,2.50
2018-03-22T23:36:58.416Z,2.40
2018-03-22T23:39:25.853Z,2.40
2018-03-22T23:41:53.303Z,2.40
2018-03-22T23:44:22.484Z,2.50
2018-03-22T23:46:50.701Z,2.50
2018-03-22T23:49:18.144Z,2.50
2018-03-22T23:51:47.499Z,2.50
2018-03-22T23:54:14.934Z,2.50
2018-03-22T23:56:42.401Z,2.50
2018-03-22T23:59:10.768Z,2.50
